KRHV/RHV METAR and TAF weather

Enter ICAO airport designator
Station Type Date Time Source
KRHV METAR 2020/09/20 04:47 UTC NOAA

KRHV 200447Z 00000KT 10SM SKC 20/14 A2993 RMK LAST


Station Type Date Time Source
KRHV Decoded METAR 2020/09/20 04:47 UTC NOAA

San Jose / Reid / Hillv, CA, United States (KRHV) 37-20N 121-49W
Sep 20, 2020 - 12:47 AM EDT / 2020.09.20 0447 UTC
Wind: Calm:0
Visibility: 10 mile(s):0
Sky conditions: clear
Temperature: 68 F (20 C)
Dew Point: 57 F (14 C)
Relative Humidity: 68%
Pressure (altimeter): 29.93 in. Hg (1013 hPa)
ob: KRHV 200447Z 00000KT 10SM SKC 20/14 A2993 RMK LAST
cycle: 5

Station Type Date Time Source
KRHV TAF UTC NOAA

Error!

Example: see airport list